Time;durP1;ratioP1;P1;durP2;ratioP2;P2;SDS_P1;SDS_P2;PMS_P1;PMS_P2;Temp;Humidity;BMP_temperature;BMP_pressure;BME280_temperature;BME280_humidity;BME280_pressure;Samples;Min_cycle;Max_cycle;Signal;HPM_P1;HPM_P2
2022/12/28 00:00:54;;;;;;;15.38;5.95;;;;;;;;;;5068907;28;20925;-76
2022/12/28 00:03:20;;;;;;;12.90;5.75;;;;;;;;;;5066437;28;20480;-76
2022/12/28 00:05:46;;;;;;;11.45;5.65;;;;;;;;;;5054458;28;20451;-76
2022/12/28 00:08:12;;;;;;;11.65;5.80;;;;;;;;;;5069757;28;20418;-76
2022/12/28 00:10:38;;;;;;;11.77;5.72;;;;;;;;;;5089743;28;20432;-76
2022/12/28 00:13:04;;;;;;;12.77;5.55;;;;;;;;;;5072538;28;20420;-75
2022/12/28 00:15:30;;;;;;;14.77;6.00;;;;;;;;;;5073236;28;20419;-75
2022/12/28 00:17:57;;;;;;;10.95;5.80;;;;;;;;;;5067550;28;20423;-76
2022/12/28 00:20:23;;;;;;;12.50;6.00;;;;;;;;;;5088920;28;20475;-76
2022/12/28 00:22:49;;;;;;;12.50;6.50;;;;;;;;;;5077318;28;20466;-76
2022/12/28 00:25:15;;;;;;;13.02;6.32;;;;;;;;;;5054000;28;20426;-76
2022/12/28 00:27:41;;;;;;;13.47;6.40;;;;;;;;;;5071861;28;20496;-76
2022/12/28 00:30:07;;;;;;;13.75;6.57;;;;;;;;;;5055086;28;20422;-76
2022/12/28 00:32:33;;;;;;;12.53;6.50;;;;;;;;;;5069537;28;20450;-76
2022/12/28 00:34:59;;;;;;;12.63;6.88;;;;;;;;;;5044788;28;20516;-76
2022/12/28 00:37:26;;;;;;;11.60;6.70;;;;;;;;;;5037945;28;20760;-76
2022/12/28 00:39:52;;;;;;;12.57;6.47;;;;;;;;;;5023027;28;20415;-76
2022/12/28 00:42:18;;;;;;;11.48;6.45;;;;;;;;;;5055280;28;20426;-76
2022/12/28 00:44:44;;;;;;;13.73;6.97;;;;;;;;;;5033294;28;20430;-76
2022/12/28 00:47:12;;;;;;;13.25;6.85;;;;;;;;;;5048627;28;20550;-76
2022/12/28 00:49:38;;;;;;;14.18;6.75;;;;;;;;;;5051716;28;20423;-75
2022/12/28 00:52:05;;;;;;;12.93;6.63;;;;;;;;;;5053606;28;20419;-76
2022/12/28 00:54:31;;;;;;;12.38;6.82;;;;;;;;;;5053741;28;20411;-75
2022/12/28 00:56:57;;;;;;;15.77;7.40;;;;;;;;;;5055634;28;20411;-75
2022/12/28 00:59:23;;;;;;;13.15;6.90;;;;;;;;;;5052235;28;20425;-75
2022/12/28 01:01:49;;;;;;;11.80;6.22;;;;;;;;;;5062849;28;20418;-75
2022/12/28 01:04:15;;;;;;;11.68;6.30;;;;;;;;;;5055782;28;20429;-75
2022/12/28 01:06:41;;;;;;;12.73;6.70;;;;;;;;;;5054422;28;20454;-75
2022/12/28 01:09:07;;;;;;;12.00;6.50;;;;;;;;;;5055271;28;20973;-75
2022/12/28 01:11:33;;;;;;;10.63;5.82;;;;;;;;;;5037343;28;20421;-75
2022/12/28 01:14:00;;;;;;;15.82;6.13;;;;;;;;;;5053647;28;20500;-75
2022/12/28 01:16:29;;;;;;;13.87;5.93;;;;;;;;;;5058100;28;20835;-75
2022/12/28 01:18:56;;;;;;;13.07;6.60;;;;;;;;;;5054450;28;20911;-75
2022/12/28 01:21:24;;;;;;;10.70;5.95;;;;;;;;;;5054103;28;20415;-75
2022/12/28 01:23:52;;;;;;;11.65;5.85;;;;;;;;;;5054949;28;20490;-75
2022/12/28 01:26:18;;;;;;;11.70;5.90;;;;;;;;;;5052392;28;20439;-75
2022/12/28 01:28:44;;;;;;;14.20;6.55;;;;;;;;;;5053998;28;20947;-75
2022/12/28 01:31:12;;;;;;;11.75;6.20;;;;;;;;;;5051701;28;20419;-75
2022/12/28 01:33:38;;;;;;;13.13;6.53;;;;;;;;;;5060996;28;20507;-75
2022/12/28 01:36:15;;;;;;;11.38;5.75;;;;;;;;;;5070593;28;20415;-75
2022/12/28 01:38:42;;;;;;;12.02;6.15;;;;;;;;;;5054172;28;20415;-76
2022/12/28 01:41:16;;;;;;;11.15;6.47;;;;;;;;;;5054586;28;20427;-76
2022/12/28 01:43:44;;;;;;;11.57;6.25;;;;;;;;;;5054775;28;20427;-77
2022/12/28 01:46:14;;;;;;;12.73;6.68;;;;;;;;;;5053709;28;20430;-77
2022/12/28 01:48:45;;;;;;;11.38;6.78;;;;;;;;;;5072296;28;20407;-77
2022/12/28 01:51:11;;;;;;;14.10;6.47;;;;;;;;;;5067477;28;20761;-76
2022/12/28 01:53:37;;;;;;;12.32;6.47;;;;;;;;;;5071278;28;20548;-76
2022/12/28 01:56:03;;;;;;;16.05;7.50;;;;;;;;;;5078581;28;20414;-76
2022/12/28 01:58:31;;;;;;;13.70;7.40;;;;;;;;;;5064410;28;20477;-76
2022/12/28 02:00:57;;;;;;;13.68;7.93;;;;;;;;;;5065703;28;20424;-77
2022/12/28 02:03:26;;;;;;;15.45;7.60;;;;;;;;;;5050735;28;20416;-76
2022/12/28 02:05:53;;;;;;;12.43;7.80;;;;;;;;;;5053243;28;20430;-76
2022/12/28 02:08:23;;;;;;;14.85;8.18;;;;;;;;;;5069678;28;20915;-76
2022/12/28 02:10:51;;;;;;;15.75;8.10;;;;;;;;;;5067043;28;20415;-76
2022/12/28 02:13:17;;;;;;;15.67;8.77;;;;;;;;;;5070092;28;20428;-77
2022/12/28 02:15:44;;;;;;;26.80;9.57;;;;;;;;;;5072145;28;20473;-76
2022/12/28 02:18:11;;;;;;;16.60;9.00;;;;;;;;;;5046579;28;20414;-78
2022/12/28 02:20:50;;;;;;;14.63;8.90;;;;;;;;;;5086294;28;20397;-78
2022/12/28 02:24:01;;;;;;;15.55;9.23;;;6.00;99.90;;;;;;5068194;28;20431;-78
2022/12/28 02:26:30;;;;;;;15.25;9.25;;;;;;;;;;5034876;28;20416;-78
2022/12/28 02:28:59;;;;;;;18.15;10.00;;;;;;;;;;5069034;28;20935;-78
2022/12/28 02:31:34;;;;;;;15.52;9.18;;;;;;;;;;5071616;28;20904;-78
2022/12/28 02:34:03;;;;;;;17.23;9.55;;;;;;;;;;5061436;28;20421;-77
2022/12/28 02:36:33;;;;;;;16.65;9.00;;;;;;;;;;5070391;28;20508;-77
2022/12/28 02:39:03;;;;;;;16.38;9.98;;;;;;;;;;5059414;28;20450;-78
2022/12/28 02:41:30;;;;;;;19.80;10.88;;;;;;;;;;5055470;28;20409;-77
2022/12/28 02:43:58;;;;;;;21.27;11.30;;;;;;;;;;5095992;28;20439;-77
2022/12/28 02:52:20;;;;;;;15.93;10.63;;;;;;;;;;5067114;28;20491;-77
2022/12/28 02:57:49;;;;;;;27.65;12.63;;;;;;;;;;5069721;28;20423;-77
2022/12/28 03:00:17;;;;;;;17.83;10.70;;;;;;;;;;5070419;28;20468;-77
2022/12/28 03:02:49;;;;;;;17.17;10.98;;;;;;;;;;5054291;28;20430;-77
2022/12/28 03:08:13;;;;;;;20.63;11.63;;;;;;;;;;5068576;28;20445;-77
2022/12/28 03:08:18;;;;;;;18.38;10.95;;;;;;;;;;5070610;28;20450;-77
2022/12/28 03:11:03;;;;;;;17.83;11.83;;;;;;;;;;5066585;28;20423;-77
2022/12/28 03:13:44;;;;;;;21.85;12.13;;;;;;;;;;5084065;28;20433;-77
2022/12/28 03:16:27;;;;;;;34.25;12.95;;;;;;;;;;5065273;28;20423;-77
2022/12/28 03:32:48;;;;;;;20.33;11.50;;;;;;;;;;5070030;28;20435;-77
2022/12/28 03:35:15;;;;;;;17.92;11.20;;;;;;;;;;5050419;28;20459;-77
2022/12/28 03:38:01;;;;;;;19.63;11.35;;;;;;;;;;5037936;28;20465;-77
2022/12/28 03:40:47;;;;;;;16.10;10.50;;;;;;;;;;5052672;28;20427;-77
2022/12/28 03:46:16;;;;;;;14.90;10.23;;;;;;;;;;5037560;28;20507;-77
2022/12/28 03:48:43;;;;;;;16.17;11.00;;;;;;;;;;5059992;28;20432;-77
2022/12/28 03:51:11;;;;;;;15.55;10.63;;;7.00;99.90;;;;;;5060576;28;20431;-77
2022/12/28 03:53:41;;;;;;;14.70;10.23;;;;;;;;;;5053275;28;20420;-77
2022/12/28 03:56:11;;;;;;;13.68;10.07;;;;;;;;;;5035012;28;20422;-77
2022/12/28 03:58:37;;;;;;;14.93;10.70;;;;;;;;;;5053338;28;20415;-77
2022/12/28 04:01:04;;;;;;;14.23;10.77;;;;;;;;;;5059910;28;20425;-77
2022/12/28 04:03:30;;;;;;;13.25;9.95;;;;;;;;;;5053639;28;20449;-77
2022/12/28 04:05:57;;;;;;;14.90;10.63;;;;;;;;;;5052870;28;20423;-77
2022/12/28 04:08:23;;;;;;;13.90;10.20;;;;;;;;;;5036591;28;20454;-77
2022/12/28 04:10:49;;;;;;;14.43;10.65;;;;;;;;;;5071204;28;20391;-77
2022/12/28 04:13:15;;;;;;;14.57;10.23;;;;;;;;;;5051193;28;20506;-77
2022/12/28 04:15:41;;;;;;;15.88;10.02;;;;;;;;;;5035674;28;20476;-77
2022/12/28 04:18:07;;;;;;;15.73;10.60;;;;;;;;;;5037721;28;20420;-77
2022/12/28 04:20:33;;;;;;;15.52;11.38;;;;;;;;;;5058090;28;20419;-77
2022/12/28 04:22:59;;;;;;;16.75;11.52;;;;;;;;;;5016844;28;20429;-77
2022/12/28 04:25:25;;;;;;;15.05;10.38;;;;;;;;;;5035077;28;20419;-77
2022/12/28 04:27:51;;;;;;;14.40;10.90;;;;;;;;;;5051597;28;21011;-77
2022/12/28 04:30:17;;;;;;;15.60;11.03;;;;;;;;;;5051004;28;20756;-77
2022/12/28 04:32:43;;;;;;;18.50;11.95;;;;;;;;;;5047817;28;20907;-77
2022/12/28 04:35:09;;;;;;;16.73;12.15;;;;;;;;;;5036795;28;20423;-77
2022/12/28 04:37:36;;;;;;;15.57;11.83;;;;;;;;;;5020388;28;20412;-77
2022/12/28 04:40:02;;;;;;;16.70;12.43;;;;;;;;;;5050594;28;20401;-77
2022/12/28 04:42:29;;;;;;;15.63;12.07;;;;;;;;;;5042348;28;20422;-77
2022/12/28 04:44:55;;;;;;;19.53;12.93;;;;;;;;;;5033536;28;20478;-77
2022/12/28 04:47:21;;;;;;;21.55;13.15;;;;;;;;;;5037492;28;20412;-77
2022/12/28 04:49:47;;;;;;;19.42;14.02;;;;;;;;;;5024939;28;20500;-77
2022/12/28 04:52:13;;;;;;;20.73;13.97;;;;;;;;;;5054149;28;20579;-77
2022/12/28 04:54:39;;;;;;;21.05;14.98;;;;;;;;;;5040369;28;20983;-77
2022/12/28 04:57:05;;;;;;;20.75;15.35;;;;;;;;;;5056451;28;20911;-77
2022/12/28 04:59:31;;;;;;;22.52;15.38;;;;;;;;;;5054720;28;20953;-77
2022/12/28 05:01:57;;;;;;;33.05;15.95;;;;;;;;;;5037460;28;20567;-76
2022/12/28 05:04:23;;;;;;;23.47;15.73;;;;;;;;;;5049002;28;20472;-76
2022/12/28 05:06:50;;;;;;;22.50;15.77;;;;;;;;;;5047950;28;20435;-77
2022/12/28 05:09:18;;;;;;;23.67;16.83;;;;;;;;;;5045997;28;20492;-77
2022/12/28 05:11:46;;;;;;;22.40;15.43;;;;;;;;;;5056520;28;20414;-77
2022/12/28 05:14:13;;;;;;;35.92;18.50;;;;;;;;;;5065511;28;20938;-77
2022/12/28 05:16:39;;;;;;;23.55;17.00;;;;;;;;;;5056705;28;20404;-77
2022/12/28 05:19:05;;;;;;;22.38;16.38;;;;;;;;;;5056601;28;20479;-77
2022/12/28 05:21:31;;;;;;;22.17;16.33;;;;;;;;;;5055505;28;20825;-77
2022/12/28 05:23:57;;;;;;;24.83;16.83;;;;;;;;;;5051878;28;20417;-77
2022/12/28 05:26:25;;;;;;;24.58;17.33;;;;;;;;;;5056377;28;20412;-77
2022/12/28 05:28:51;;;;;;;21.27;15.98;;;;;;;;;;5053891;28;20935;-76
2022/12/28 05:31:18;;;;;;;38.83;18.10;;;;;;;;;;5055629;28;20931;-77
2022/12/28 05:33:46;;;;;;;23.30;17.10;;;;;;;;;;5060452;28;20477;-77
2022/12/28 05:36:22;;;;;;;23.48;17.23;;;;;;;;;;5051797;28;20939;-77
2022/12/28 05:38:48;;;;;;;24.85;17.90;;;;;;;;;;5078377;28;21003;-76
2022/12/28 05:41:22;;;;;;;24.55;17.40;;;7.50;99.90;;;;;;5070123;28;20492;-77
2022/12/28 05:43:48;;;;;;;21.90;16.67;;;;;;;;;;5096675;27;20427;-77
2022/12/28 05:46:23;;;;;;;24.17;17.00;;;;;;;;;;5100674;28;20983;-77
2022/12/28 05:48:49;;;;;;;27.50;18.48;;;;;;;;;;5066012;28;20984;-77
2022/12/28 05:51:17;;;;;;;24.50;17.98;;;;;;;;;;5079011;28;20424;-76
2022/12/28 05:53:43;;;;;;;22.85;17.30;;;;;;;;;;5071798;28;20419;-76
2022/12/28 05:56:13;;;;;;;26.33;18.42;;;;;;;;;;5079948;28;20466;-76
2022/12/28 05:58:40;;;;;;;22.27;17.00;;;;;;;;;;5082833;28;20420;-76
2022/12/28 06:01:06;;;;;;;25.33;17.02;;;;;;;;;;5070068;28;20426;-76
2022/12/28 06:03:32;;;;;;;23.85;16.52;;;;;;;;;;5063885;28;20524;-77
2022/12/28 06:06:02;;;;;;;20.70;16.00;;;;;;;;;;5070396;28;20424;-77
2022/12/28 06:08:28;;;;;;;21.00;15.82;;;;;;;;;;5072249;28;20408;-77
2022/12/28 06:10:54;;;;;;;22.45;15.85;;;;;;;;;;5054753;28;20426;-77
2022/12/28 06:13:20;;;;;;;22.40;15.48;;;;;;;;;;5070680;28;20456;-77
2022/12/28 06:15:46;;;;;;;21.02;15.43;;;;;;;;;;5067826;28;20424;-77
2022/12/28 06:18:12;;;;;;;19.13;14.85;;;;;;;;;;5075290;28;20452;-77
2022/12/28 06:20:38;;;;;;;22.38;15.50;;;;;;;;;;5091130;28;20419;-76
2022/12/28 06:23:04;;;;;;;23.98;15.30;;;;;;;;;;5045146;28;20432;-77
2022/12/28 06:25:30;;;;;;;23.73;14.27;;;;;;;;;;5086089;28;20402;-77
2022/12/28 06:27:56;;;;;;;34.65;14.60;;;;;;;;;;5103060;28;20466;-77
2022/12/28 06:30:22;;;;;;;26.45;16.38;;;;;;;;;;5066929;28;20421;-77
2022/12/28 06:32:48;;;;;;;42.63;15.10;;;;;;;;;;5083073;28;20957;-77
2022/12/28 06:35:15;;;;;;;18.00;14.05;;;;;;;;;;5057085;28;21764;-77
2022/12/28 06:37:41;;;;;;;33.38;15.82;;;;;;;;;;5043951;28;20514;-77
2022/12/28 06:40:07;;;;;;;49.85;16.45;;;;;;;;;;5053998;28;20420;-77
2022/12/28 06:42:33;;;;;;;43.38;16.60;;;;;;;;;;5054004;28;20411;-77
2022/12/28 06:44:59;;;;;;;32.37;16.60;;;;;;;;;;5039078;28;20504;-77
2022/12/28 06:47:25;;;;;;;30.85;16.73;;;;;;;;;;5064460;28;20415;-77
2022/12/28 06:49:51;;;;;;;50.70;17.70;;;;;;;;;;5054367;28;20635;-77
2022/12/28 06:52:17;;;;;;;24.85;15.90;;;;;;;;;;5052155;28;20418;-76
2022/12/28 06:54:43;;;;;;;40.08;16.90;;;;;;;;;;5036027;28;20423;-76
2022/12/28 06:57:09;;;;;;;29.73;15.60;;;;;;;;;;5052756;28;20511;-77
2022/12/28 06:59:35;;;;;;;31.73;16.25;;;;;;;;;;5054583;28;20416;-77
2022/12/28 07:02:01;;;;;;;22.47;14.07;;;;;;;;;;5058457;28;20424;-76
2022/12/28 07:04:27;;;;;;;23.63;14.68;;;;;;;;;;5036869;28;20426;-77
2022/12/28 07:06:53;;;;;;;19.27;14.48;;;;;;;;;;5047392;28;20432;-78
2022/12/28 07:09:19;;;;;;;19.88;13.82;;;;;;;;;;5037502;28;20518;-78
2022/12/28 07:11:49;;;;;;;17.45;13.90;;;;;;;;;;5020224;28;20429;-78
2022/12/28 07:14:15;;;;;;;18.85;14.02;;;;;;;;;;5051196;28;20419;-78
2022/12/28 07:16:41;;;;;;;19.35;13.63;;;;;;;;;;5051995;28;20828;-78
2022/12/28 07:19:07;;;;;;;18.83;14.35;;;;;;;;;;5043872;28;20477;-77
2022/12/28 07:21:36;;;;;;;19.23;14.43;;;8.60;99.90;;;;;;5043970;28;20423;-77
2022/12/28 07:24:03;;;;;;;20.55;14.60;;;;;;;;;;5034845;28;20421;-77
2022/12/28 07:26:30;;;;;;;18.95;13.85;;;;;;;;;;5052141;28;20421;-77
2022/12/28 07:28:57;;;;;;;19.85;14.00;;;;;;;;;;5050693;28;20480;-77
2022/12/28 07:31:26;;;;;;;20.17;13.82;;;8.70;99.90;;;;;;5036999;28;20915;-77
2022/12/28 07:33:54;;;;;;;18.75;13.98;;;;;;;;;;5058695;28;20435;-77
2022/12/28 07:36:21;;;;;;;18.50;12.93;;;;;;;;;;5055802;28;20448;-77
2022/12/28 07:38:48;;;;;;;18.35;13.45;;;;;;;;;;5089271;28;20737;-77
2022/12/28 07:41:18;;;;;;;18.13;13.35;;;;;;;;;;5069154;28;20429;-77
2022/12/28 07:43:44;;;;;;;18.63;13.68;;;;;;;;;;5062058;28;20472;-77
2022/12/28 07:46:15;;;;;;;18.85;13.77;;;;;;;;;;5065712;28;20428;-77
2022/12/28 07:48:42;;;;;;;18.58;13.90;;;;;;;;;;5097598;28;20428;-77
2022/12/28 07:51:17;;;;;;;20.27;14.32;;;;;;;;;;5052841;28;20420;-78
2022/12/28 07:53:47;;;;;;;19.60;14.13;;;;;;;;;;5052368;28;21026;-78
2022/12/28 07:56:13;;;;;;;19.00;13.82;;;;;;;;;;5065037;28;20416;-78
2022/12/28 07:58:40;;;;;;;17.53;13.73;;;;;;;;;;5064596;28;20430;-78
2022/12/28 08:01:10;;;;;;;18.52;13.48;;;;;;;;;;5069380;28;20483;-78
2022/12/28 08:03:36;;;;;;;19.58;14.75;;;;;;;;;;5068892;28;20407;-78
2022/12/28 08:06:03;;;;;;;18.38;13.68;;;9.50;99.90;;;;;;5084787;28;20421;-78
2022/12/28 08:08:29;;;;;;;20.95;14.02;;;;;;;;;;5062897;28;20419;-78
2022/12/28 08:10:55;;;;;;;18.45;14.10;;;;;;;;;;5052688;28;20431;-78
2022/12/28 08:13:21;;;;;;;18.35;13.60;;;;;;;;;;5069321;28;20423;-78
2022/12/28 08:15:54;;;;;;;16.50;14.15;;;;;;;;;;5050078;28;20425;-78
2022/12/28 08:18:20;;;;;;;16.30;13.48;;;;;;;;;;5048844;28;20431;-78
2022/12/28 08:20:46;;;;;;;19.20;14.60;;;;;;;;;;5075424;28;20965;-78
2022/12/28 08:23:12;;;;;;;20.27;14.57;;;;;;;;;;5070715;28;20415;-78
2022/12/28 08:25:38;;;;;;;16.88;13.98;;;;;;;;;;5064825;28;20426;-78
2022/12/28 08:28:04;;;;;;;17.70;13.88;;;;;;;;;;5107483;28;20400;-79
2022/12/28 08:30:30;;;;;;;18.67;14.50;;;;;;;;;;5072735;28;20447;-79
2022/12/28 08:32:56;;;;;;;20.60;14.80;;;;;;;;;;5061473;28;20448;-79
2022/12/28 08:35:22;;;;;;;21.98;14.52;;;;;;;;;;5055262;28;20423;-79
2022/12/28 08:37:48;;;;;;;18.83;14.00;;;;;;;;;;5046792;28;20427;-79
2022/12/28 08:40:15;;;;;;;17.92;13.18;;;;;;;;;;5023384;28;20814;-80
2022/12/28 08:42:41;;;;;;;18.52;12.13;;;;;;;;;;5054764;28;20422;-80
2022/12/28 08:45:07;;;;;;;32.63;12.93;;;;;;;;;;5054771;28;20496;-79
2022/12/28 08:47:33;;;;;;;13.60;9.60;;;;;;;;;;5055955;28;20416;-79
2022/12/28 08:49:59;;;;;;;11.75;9.18;;;;;;;;;;5040982;28;20475;-80
2022/12/28 08:52:26;;;;;;;23.30;9.93;;;;;;;;;;5028265;28;20421;-80
2022/12/28 08:54:52;;;;;;;40.13;11.30;;;;;;;;;;5036242;28;20444;-80
2022/12/28 08:57:18;;;;;;;11.52;8.68;;;;;;;;;;5052116;28;20431;-79
2022/12/28 08:59:47;;;;;;;12.17;9.23;;;;;;;;;;5035702;28;20502;-80
2022/12/28 09:02:13;;;;;;;11.80;8.52;;;;;;;;;;5053322;28;20423;-79
2022/12/28 09:04:40;;;;;;;17.67;9.10;;;;;;;;;;5039482;28;20480;-79
2022/12/28 09:07:06;;;;;;;10.77;8.35;;;;;;;;;;5039571;28;20439;-79
2022/12/28 09:09:33;;;;;;;12.55;8.50;;;;;;;;;;5053638;28;20423;-79
2022/12/28 09:11:59;;;;;;;12.83;9.20;;;;;;;;;;5053218;28;20602;-79
2022/12/28 09:14:25;;;;;;;19.23;10.63;;;;;;;;;;5052669;28;20419;-79
2022/12/28 09:16:54;;;;;;;49.13;12.98;;;;;;;;;;5053179;28;20506;-79
2022/12/28 09:19:21;;;;;;;15.90;11.15;;;;;;;;;;5048241;28;20432;-79
2022/12/28 09:21:51;;;;;;;15.10;11.32;;;;;;;;;;5055639;28;20441;-79
2022/12/28 09:24:17;;;;;;;16.40;11.98;;;;;;;;;;5055874;28;20944;-79
2022/12/28 09:26:43;;;;;;;31.38;13.40;;;;;;;;;;5054184;28;20423;-79
2022/12/28 09:29:11;;;;;;;17.55;12.32;;;;;;;;;;5048946;28;20456;-79
2022/12/28 09:31:40;;;;;;;17.25;12.27;;;;;;;;;;5055021;28;20498;-79
2022/12/28 09:34:07;;;;;;;16.63;11.90;;;;;;;;;;5055530;28;20468;-80
2022/12/28 09:36:35;;;;;;;16.63;11.80;;;9.20;99.90;;;;;;5040532;28;20411;-79
2022/12/28 09:39:04;;;;;;;17.35;11.52;;;;;;;;;;5055472;28;20506;-80
2022/12/28 09:41:32;;;;;;;17.10;12.68;;;;;;;;;;5042913;28;20428;-79
2022/12/28 09:44:08;;;;;;;16.48;11.98;;;;;;;;;;5059367;28;20423;-78
2022/12/28 09:46:35;;;;;;;18.10;12.07;;;;;;;;;;5041788;28;20941;-79
2022/12/28 09:49:05;;;;;;;17.30;11.70;;;9.70;99.90;;;;;;5051417;28;20433;-78
2022/12/28 09:51:34;;;;;;;14.93;10.82;;;;;;;;;;5042536;28;20515;-78
2022/12/28 09:54:01;;;;;;;17.83;11.18;;;;;;;;;;5043962;28;20425;-77
2022/12/28 09:56:29;;;;;;;16.80;10.93;;;;;;;;;;5041383;28;20419;-78
2022/12/28 09:58:55;;;;;;;65.75;14.63;;;;;;;;;;5054116;28;20428;-80
2022/12/28 10:01:22;;;;;;;18.05;11.50;;;;;;;;;;5060583;28;20426;-79
2022/12/28 10:03:49;;;;;;;18.88;11.68;;;;;;;;;;5056954;28;20404;-79
2022/12/28 10:06:25;;;;;;;16.17;11.40;;;;;;;;;;5049483;28;20424;-79
2022/12/28 10:08:54;;;;;;;16.90;11.32;;;9.10;99.90;;;;;;5034127;28;20427;-79
2022/12/28 10:11:23;;;;;;;16.50;11.30;;;;;;;;;;5035619;28;20458;-79
2022/12/28 10:13:53;;;;;;;17.13;11.35;;;;;;;;;;5050717;28;20946;-79
2022/12/28 10:16:20;;;;;;;18.53;12.00;;;;;;;;;;5054667;28;20449;-80
2022/12/28 10:18:47;;;;;;;21.50;12.37;;;;;;;;;;5069293;28;20474;-79
2022/12/28 10:21:14;;;;;;;20.35;12.82;;;;;;;;;;5058361;28;20477;-79
2022/12/28 10:23:41;;;;;;;15.52;11.15;;;9.30;99.90;;;;;;5046827;28;20913;-80
2022/12/28 10:26:12;;;;;;;12.88;9.20;;;;;;;;;;5070228;28;20903;-80
2022/12/28 10:28:44;;;;;;;14.45;10.27;;;;;;;;;;5072444;28;20782;-80
2022/12/28 10:31:11;;;;;;;13.50;9.50;;;9.50;99.90;;;;;;5065292;28;20436;-80
2022/12/28 10:33:41;;;;;;;14.93;9.43;;;;;;;;;;5059332;28;20785;-80
2022/12/28 10:36:15;;;;;;;12.05;8.43;;;;;;;;;;5068711;28;20434;-80
2022/12/28 10:38:42;;;;;;;12.82;8.75;;;;;;;;;;5069697;28;20905;-80
2022/12/28 10:41:13;;;;;;;10.82;8.07;;;9.70;99.90;;;;;;5055652;28;20407;-80
2022/12/28 10:43:40;;;;;;;13.32;8.10;;;;;;;;;;5104339;28;20814;-80
2022/12/28 10:46:13;;;;;;;13.98;8.00;;;;;;;;;;5071505;28;20759;-79
2022/12/28 10:48:39;;;;;;;44.88;9.73;;;;;;;;;;5058665;28;20422;-80
2022/12/28 10:51:11;;;;;;;19.88;8.50;;;;;;;;;;5071638;28;20415;-80
2022/12/28 10:53:40;;;;;;;25.00;9.30;;;;;;;;;;5074795;28;20425;-80
2022/12/28 10:56:12;;;;;;;31.08;9.57;;;;;;;;;;5077520;28;20917;-80
2022/12/28 10:58:39;;;;;;;32.55;9.70;;;;;;;;;;5086210;28;20471;-81
2022/12/28 11:01:14;;;;;;;13.85;7.82;;;;;;;;;;5054048;28;20503;-80
2022/12/28 11:03:45;;;;;;;11.00;7.30;;;;;;;;;;5069584;28;20733;-79
2022/12/28 11:06:21;;;;;;;24.10;8.68;;;;;;;;;;5062090;28;20421;-80
2022/12/28 11:09:04;;;;;;;49.83;9.95;;;9.30;99.90;;;;;;5064721;28;20420;-80
2022/12/28 11:11:31;;;;;;;11.33;6.87;;;;;;;;;;5102840;28;20515;-80
2022/12/28 11:14:12;;;;;;;10.38;6.50;;;9.00;99.90;;;;;;5061653;28;20421;-79
2022/12/28 11:16:39;;;;;;;26.27;7.38;;;9.30;99.90;;;;;;5052713;28;20459;-78
2022/12/28 11:19:05;;;;;;;11.02;5.70;;;;;;;;;;5063392;28;20413;-78
2022/12/28 11:21:33;;;;;;;7.97;5.43;;;;;;;;;;5075350;28;20911;-77
2022/12/28 11:23:59;;;;;;;8.63;5.32;;;;;;;;;;5052732;28;20481;-78
2022/12/28 11:26:27;;;;;;;7.72;5.20;;;9.30;99.90;;;;;;5082456;28;20482;-79
2022/12/28 11:28:54;;;;;;;21.02;7.57;;;;;;;;;;5069140;28;21972;-78
2022/12/28 11:31:39;;;;;;;9.90;5.72;;;;;;;;;;5064265;28;20428;-78
2022/12/28 11:34:06;;;;;;;9.27;6.25;;;;;;;;;;5070710;28;20427;-79
2022/12/28 11:36:38;;;;;;;10.18;6.40;;;9.40;99.90;;;;;;5061014;28;20457;-78
2022/12/28 11:39:23;;;;;;;9.80;6.90;;;;;;;;;;5101891;28;20403;-78
2022/12/28 11:41:51;;;;;;;10.35;6.88;;;;;;;;;;5067472;28;20420;-78
2022/12/28 11:44:29;;;;;;;8.88;6.45;;;;;;;;;;5065492;28;20994;-79
2022/12/28 11:46:58;;;;;;;9.93;7.50;;;;;;;;;;5069325;28;20430;-78
2022/12/28 11:49:32;;;;;;;11.10;7.90;;;9.30;99.90;;;;;;5066195;28;20477;-79
2022/12/28 11:52:16;;;;;;;9.88;7.55;;;;;;;;;;5082949;28;20939;-79
2022/12/28 11:55:28;;;;;;;10.35;7.90;;;9.30;99.90;;;;;;5064473;28;20447;-79
2022/12/28 11:57:54;;;;;;;10.90;8.07;;;;;;;;;;5044464;28;20430;-79
2022/12/28 12:00:23;;;;;;;10.07;7.47;;;;;;;;;;5065504;28;20506;-79
2022/12/28 12:02:50;;;;;;;10.13;7.88;;;;;;;;;;5078559;28;20774;-79
2022/12/28 12:05:49;;;;;;;10.10;7.50;;;;;;;;;;5060457;28;20924;-79
2022/12/28 12:08:15;;;;;;;10.75;7.18;;;;;;;;;;5027985;28;20419;-79
2022/12/28 12:10:43;;;;;;;10.40;6.63;;;;;;;;;;5060235;28;20411;-78
2022/12/28 12:13:24;;;;;;;9.35;6.97;;;;;;;;;;5067372;28;20931;-78
2022/12/28 12:15:55;;;;;;;9.38;6.40;;;9.70;99.90;;;;;;5052469;28;20998;-79
2022/12/28 12:18:23;;;;;;;10.88;7.22;;;;;;;;;;5058558;28;20453;-76
2022/12/28 12:20:55;;;;;;;10.25;7.25;;;;;;;;;;5050650;28;20992;-76
2022/12/28 12:23:43;;;;;;;10.13;6.68;;;9.20;99.90;;;;;;5062050;28;20423;-77
2022/12/28 12:26:16;;;;;;;9.48;6.80;;;;;;;;;;5073289;28;20430;-77
2022/12/28 12:28:47;;;;;;;10.98;7.35;;;;;;;;;;5057327;28;20427;-77
2022/12/28 12:31:30;;;;;;;10.23;6.78;;;;;;;;;;5067701;28;20465;-77
2022/12/28 12:33:59;;;;;;;11.00;7.05;;;;;;;;;;5053116;28;20438;-77
2022/12/28 12:36:34;;;;;;;11.15;6.78;;;;;;;;;;5067492;28;20494;-78
2022/12/28 12:39:02;;;;;;;8.43;6.30;;;;;;;;;;5070089;28;20418;-77
2022/12/28 12:41:37;;;;;;;30.37;7.20;;;;;;;;;;5070067;28;20472;-78
2022/12/28 12:44:25;;;;;;;8.52;5.20;;;;;;;;;;5102114;27;20415;-77
2022/12/28 12:47:16;;;;;;;7.05;4.80;;;9.70;99.90;;;;;;5047492;28;20502;-77
2022/12/28 12:50:01;;;;;;;7.65;5.57;;;;;;;;;;5076919;28;20510;-77
2022/12/28 12:52:33;;;;;;;15.73;6.07;;;;;;;;;;5068367;28;20547;-78
2022/12/28 12:55:11;;;;;;;8.52;5.25;;;;;;;;;;5070008;28;20423;-77
2022/12/28 12:57:41;;;;;;;7.20;4.68;;;;;;;;;;5070289;28;20805;-78
2022/12/28 13:00:15;;;;;;;6.90;4.90;;;;;;;;;;5068127;28;20673;-78
2022/12/28 13:02:42;;;;;;;7.28;5.20;;;;;;;;;;5097544;27;20421;-77
2022/12/28 13:05:14;;;;;;;7.18;5.20;;;;;;;;;;5060995;28;20424;-77
2022/12/28 13:07:40;;;;;;;6.83;4.83;;;;;;;;;;5059980;28;20514;-77
2022/12/28 13:10:07;;;;;;;6.00;4.50;;;;;;;;;;5069574;28;20493;-77
2022/12/28 13:12:34;;;;;;;7.47;4.35;;;;;;;;;;5051743;28;20501;-78
2022/12/28 13:15:01;;;;;;;7.13;4.70;;;;;;;;;;5084209;28;20951;-77
2022/12/28 13:17:28;;;;;;;5.90;4.63;;;;;;;;;;5070272;28;20984;-77
2022/12/28 13:20:10;;;;;;;7.75;5.47;;;;;;;;;;5065805;28;21046;-78
2022/12/28 13:22:41;;;;;;;5.82;4.45;;;;;;;;;;5061730;28;20548;-77
2022/12/28 13:25:22;;;;;;;8.00;4.72;;;;;;;;;;5062789;28;20500;-74
2022/12/28 13:27:48;;;;;;;7.88;4.40;;;;;;;;;;5072581;28;20418;-78
2022/12/28 13:30:19;;;;;;;5.68;4.20;;;;;;;;;;5049879;28;20811;-76
2022/12/28 13:32:52;;;;;;;6.32;4.10;;;;;;;;;;5079978;28;20425;-77
2022/12/28 13:35:20;;;;;;;5.63;3.60;;;;;;;;;;5042828;28;20428;-77
2022/12/28 13:38:02;;;;;;;5.63;3.90;;;;;;;;;;5061175;28;20443;-77
2022/12/28 13:40:29;;;;;;;6.20;3.90;;;;;;;;;;5073020;28;20424;-77
2022/12/28 13:43:03;;;;;;;5.57;3.65;;;;;;;;;;5055083;28;20412;-77
2022/12/28 13:45:29;;;;;;;6.43;3.53;;;;;;;;;;5052236;28;20423;-77
2022/12/28 13:47:55;;;;;;;5.10;3.17;;;;;;;;;;5069011;28;20421;-77
2022/12/28 13:50:24;;;;;;;6.10;3.50;;;;;;;;;;5064163;28;20432;-77
2022/12/28 13:52:53;;;;;;;4.38;2.78;;;;;;;;;;5061224;28;20425;-77
2022/12/28 13:55:21;;;;;;;4.68;2.58;;;;;;;;;;5068604;28;20764;-77
2022/12/28 13:57:50;;;;;;;4.53;2.50;;;;;;;;;;5057760;28;20747;-77
2022/12/28 14:00:20;;;;;;;4.07;2.45;;;;;;;;;;5066321;28;20938;-77
2022/12/28 14:02:47;;;;;;;4.60;2.40;;;;;;;;;;5067753;28;20450;-77
2022/12/28 14:05:22;;;;;;;4.93;2.63;;;9.40;99.90;;;;;;5079713;28;20810;-78
2022/12/28 14:07:50;;;;;;;4.60;2.87;;;;;;;;;;5100441;27;20483;-77
2022/12/28 14:10:16;;;;;;;7.05;3.42;;;;;;;;;;5061360;28;20412;-77
2022/12/28 14:12:43;;;;;;;6.03;3.22;;;9.20;99.90;;;;;;5062811;28;20505;-77
2022/12/28 14:15:10;;;;;;;5.57;3.03;;;;;;;;;;5101732;28;20424;-77
2022/12/28 14:17:37;;;;;;;5.50;3.40;;;;;;;;;;5043770;28;20432;-77
2022/12/28 14:20:03;;;;;;;7.70;3.47;;;;;;;;;;5060948;28;20481;-77
2022/12/28 14:22:31;;;;;;;6.10;3.63;;;;;;;;;;5082782;28;20437;-77
2022/12/28 14:25:03;;;;;;;7.22;3.80;;;;;;;;;;5070712;28;20982;-77
2022/12/28 14:27:29;;;;;;;6.95;3.88;;;;;;;;;;5058771;28;20424;-77
2022/12/28 14:29:57;;;;;;;8.25;4.30;;;;;;;;;;5048205;28;20931;-77
2022/12/28 14:32:23;;;;;;;8.02;4.30;;;;;;;;;;5066754;28;20415;-77
2022/12/28 14:34:49;;;;;;;10.00;4.20;;;;;;;;;;5062121;28;20492;-77
2022/12/28 14:37:24;;;;;;;7.68;4.60;;;;;;;;;;5051592;28;20447;-77
2022/12/28 14:39:50;;;;;;;7.45;4.30;;;;;;;;;;5067596;28;20427;-77
2022/12/28 14:42:19;;;;;;;8.65;4.70;;;;;;;;;;5064930;28;20552;-78
2022/12/28 14:44:45;;;;;;;8.40;4.93;;;;;;;;;;5061030;28;20500;-77
2022/12/28 14:47:30;;;;;;;7.57;4.70;;;;;;;;;;5074710;28;20419;-78
2022/12/28 14:50:02;;;;;;;11.57;5.13;;;9.20;99.90;;;;;;5066661;28;20433;-78
2022/12/28 14:52:28;;;;;;;10.55;5.35;;;;;;;;;;5061672;28;20424;-78
2022/12/28 14:54:54;;;;;;;12.32;6.20;;;;;;;;;;5063859;28;20425;-78